sensor_id;sensor_type;location;lat;lon;timestamp;pressure;altitude;pressure_sealevel;temperature;humidity
50867;BME280;36839;51.946;21.002;2023-11-21T00:00:23;99376.19;;;0.18;100.00
50867;BME280;36839;51.946;21.002;2023-11-21T00:03:47;99380.98;;;0.20;100.00
50867;BME280;36839;51.946;21.002;2023-11-21T00:06:44;99378.23;;;0.19;100.00
50867;BME280;36839;51.946;21.002;2023-11-21T00:09:25;99379.73;;;0.12;100.00
50867;BME280;36839;51.946;21.002;2023-11-21T00:11:59;99380.20;;;0.07;100.00
50867;BME280;36839;51.946;21.002;2023-11-21T00:15:13;99386.23;;;0.04;100.00
50867;BME280;36839;51.946;21.002;2023-11-21T00:18:01;99382.95;;;0.03;100.00
50867;BME280;36839;51.946;21.002;2023-11-21T00:20:49;99384.12;;;-0.03;100.00
50867;BME280;36839;51.946;21.002;2023-11-21T00:24:11;99387.70;;;-0.03;100.00
50867;BME280;36839;51.946;21.002;2023-11-21T00:27:00;99384.58;;;-0.07;100.00
50867;BME280;36839;51.946;21.002;2023-11-21T00:30:06;99384.05;;;-0.05;100.00
50867;BME280;36839;51.946;21.002;2023-11-21T00:32:51;99388.89;;;-0.05;100.00
50867;BME280;36839;51.946;21.002;2023-11-21T00:35:29;99390.69;;;-0.05;100.00
50867;BME280;36839;51.946;21.002;2023-11-21T00:38:18;99396.41;;;-0.05;100.00
50867;BME280;36839;51.946;21.002;2023-11-21T00:40:57;99403.96;;;-0.04;100.00
50867;BME280;36839;51.946;21.002;2023-11-21T00:43:37;99411.58;;;-0.05;100.00
50867;BME280;36839;51.946;21.002;2023-11-21T00:46:09;99410.56;;;-0.09;100.00
50867;BME280;36839;51.946;21.002;2023-11-21T00:48:47;99412.04;;;-0.12;100.00
50867;BME280;36839;51.946;21.002;2023-11-21T00:51:30;99405.79;;;-0.19;100.00
50867;BME280;36839;51.946;21.002;2023-11-21T00:54:15;99405.88;;;-0.20;100.00
50867;BME280;36839;51.946;21.002;2023-11-21T00:56:57;99412.98;;;-0.18;100.00
50867;BME280;36839;51.946;21.002;2023-11-21T00:59:24;99418.15;;;-0.18;100.00
50867;BME280;36839;51.946;21.002;2023-11-21T01:01:51;99416.98;;;-0.20;100.00
50867;BME280;36839;51.946;21.002;2023-11-21T01:07:19;99420.77;;;-0.16;100.00
50867;BME280;36839;51.946;21.002;2023-11-21T01:10:28;99418.15;;;-0.13;100.00
50867;BME280;36839;51.946;21.002;2023-11-21T01:13:42;99421.59;;;-0.12;100.00
50867;BME280;36839;51.946;21.002;2023-11-21T01:16:26;99424.33;;;-0.13;100.00
50867;BME280;36839;51.946;21.002;2023-11-21T01:19:04;99426.79;;;-0.18;100.00
50867;BME280;36839;51.946;21.002;2023-11-21T01:21:42;99431.67;;;-0.16;100.00
50867;BME280;36839;51.946;21.002;2023-11-21T01:24:32;99433.33;;;-0.15;100.00
50867;BME280;36839;51.946;21.002;2023-11-21T01:27:10;99430.73;;;-0.20;100.00
50867;BME280;36839;51.946;21.002;2023-11-21T01:29:49;99432.15;;;-0.18;100.00
50867;BME280;36839;51.946;21.002;2023-11-21T01:32:26;99435.27;;;-0.18;100.00
50867;BME280;36839;51.946;21.002;2023-11-21T01:38:30;99434.58;;;-0.21;100.00
50867;BME280;36839;51.946;21.002;2023-11-21T01:41:10;99432.29;;;-0.23;100.00
50867;BME280;36839;51.946;21.002;2023-11-21T01:44:15;99428.03;;;-0.29;100.00
50867;BME280;36839;51.946;21.002;2023-11-21T01:46:52;99429.98;;;-0.34;100.00
50867;BME280;36839;51.946;21.002;2023-11-21T01:49:46;99420.04;;;-0.38;100.00
50867;BME280;36839;51.946;21.002;2023-11-21T01:52:36;99427.39;;;-0.40;100.00
50867;BME280;36839;51.946;21.002;2023-11-21T01:55:21;99435.36;;;-0.37;100.00
50867;BME280;36839;51.946;21.002;2023-11-21T01:58:12;99436.85;;;-0.36;100.00
50867;BME280;36839;51.946;21.002;2023-11-21T02:00:46;99435.17;;;-0.35;100.00
50867;BME280;36839;51.946;21.002;2023-11-21T02:03:40;99434.60;;;-0.36;100.00
50867;BME280;36839;51.946;21.002;2023-11-21T02:06:23;99428.83;;;-0.42;100.00
50867;BME280;36839;51.946;21.002;2023-11-21T02:09:11;99432.02;;;-0.44;100.00
50867;BME280;36839;51.946;21.002;2023-11-21T02:11:44;99436.02;;;-0.48;100.00
50867;BME280;36839;51.946;21.002;2023-11-21T02:14:24;99437.95;;;-0.51;100.00
50867;BME280;36839;51.946;21.002;2023-11-21T02:17:45;99432.70;;;-0.54;100.00
50867;BME280;36839;51.946;21.002;2023-11-21T02:20:22;99443.56;;;-0.56;100.00
50867;BME280;36839;51.946;21.002;2023-11-21T02:23:18;99445.86;;;-0.58;100.00
50867;BME280;36839;51.946;21.002;2023-11-21T02:29:02;99448.77;;;-0.63;100.00
50867;BME280;36839;51.946;21.002;2023-11-21T02:32:03;99449.09;;;-0.67;100.00
50867;BME280;36839;51.946;21.002;2023-11-21T02:34:49;99446.61;;;-0.68;100.00
50867;BME280;36839;51.946;21.002;2023-11-21T02:40:17;99443.67;;;-0.79;100.00
50867;BME280;36839;51.946;21.002;2023-11-21T02:43:10;99450.61;;;-0.80;100.00
50867;BME280;36839;51.946;21.002;2023-11-21T02:46:11;99449.16;;;-0.82;100.00
50867;BME280;36839;51.946;21.002;2023-11-21T02:48:42;99450.84;;;-0.83;100.00
50867;BME280;36839;51.946;21.002;2023-11-21T02:51:25;99457.05;;;-0.86;100.00
50867;BME280;36839;51.946;21.002;2023-11-21T02:54:34;99455.25;;;-0.81;100.00
50867;BME280;36839;51.946;21.002;2023-11-21T02:57:19;99453.66;;;-0.82;100.00
50867;BME280;36839;51.946;21.002;2023-11-21T02:59:51;99459.62;;;-0.79;100.00
50867;BME280;36839;51.946;21.002;2023-11-21T03:02:52;99459.41;;;-0.80;100.00
50867;BME280;36839;51.946;21.002;2023-11-21T03:05:35;99466.14;;;-0.82;100.00
50867;BME280;36839;51.946;21.002;2023-11-21T03:08:16;99470.04;;;-0.87;100.00
50867;BME280;36839;51.946;21.002;2023-11-21T03:11:14;99474.10;;;-0.92;100.00
50867;BME280;36839;51.946;21.002;2023-11-21T03:13:50;99477.98;;;-0.93;100.00
50867;BME280;36839;51.946;21.002;2023-11-21T03:16:31;99472.95;;;-0.98;100.00
50867;BME280;36839;51.946;21.002;2023-11-21T03:19:13;99475.77;;;-1.05;100.00
50867;BME280;36839;51.946;21.002;2023-11-21T03:21:52;99470.36;;;-1.08;100.00
50867;BME280;36839;51.946;21.002;2023-11-21T03:24:33;99467.76;;;-1.06;100.00
50867;BME280;36839;51.946;21.002;2023-11-21T03:27:11;99468.17;;;-1.05;100.00
50867;BME280;36839;51.946;21.002;2023-11-21T03:29:47;99472.19;;;-1.07;100.00
50867;BME280;36839;51.946;21.002;2023-11-21T03:32:18;99476.98;;;-1.06;100.00
50867;BME280;36839;51.946;21.002;2023-11-21T03:35:05;99483.39;;;-1.04;100.00
50867;BME280;36839;51.946;21.002;2023-11-21T03:37:41;99481.19;;;-1.01;100.00
50867;BME280;36839;51.946;21.002;2023-11-21T03:40:27;99483.48;;;-1.06;100.00
50867;BME280;36839;51.946;21.002;2023-11-21T03:43:24;99489.41;;;-1.09;100.00
50867;BME280;36839;51.946;21.002;2023-11-21T03:45:57;99492.73;;;-1.17;100.00
50867;BME280;36839;51.946;21.002;2023-11-21T03:48:29;99499.03;;;-1.21;100.00
50867;BME280;36839;51.946;21.002;2023-11-21T03:51:12;99501.23;;;-1.25;100.00
50867;BME280;36839;51.946;21.002;2023-11-21T03:54:17;99503.29;;;-1.27;100.00
50867;BME280;36839;51.946;21.002;2023-11-21T03:57:17;99504.85;;;-1.29;100.00
50867;BME280;36839;51.946;21.002;2023-11-21T04:00:03;99506.67;;;-1.29;100.00
50867;BME280;36839;51.946;21.002;2023-11-21T04:03:18;99510.23;;;-1.25;100.00
50867;BME280;36839;51.946;21.002;2023-11-21T04:05:55;99513.05;;;-1.22;100.00
50867;BME280;36839;51.946;21.002;2023-11-21T04:08:35;99513.17;;;-1.24;100.00
50867;BME280;36839;51.946;21.002;2023-11-21T04:11:13;99513.71;;;-1.21;100.00
50867;BME280;36839;51.946;21.002;2023-11-21T04:13:49;99518.38;;;-1.20;100.00
50867;BME280;36839;51.946;21.002;2023-11-21T04:16:36;99520.59;;;-1.23;100.00
50867;BME280;36839;51.946;21.002;2023-11-21T04:19:33;99517.34;;;-1.21;100.00
50867;BME280;36839;51.946;21.002;2023-11-21T04:22:16;99516.34;;;-1.22;100.00
50867;BME280;36839;51.946;21.002;2023-11-21T04:24:50;99519.29;;;-1.25;100.00
50867;BME280;36839;51.946;21.002;2023-11-21T04:27:47;99525.45;;;-1.24;100.00
50867;BME280;36839;51.946;21.002;2023-11-21T04:30:17;99525.38;;;-1.25;100.00
50867;BME280;36839;51.946;21.002;2023-11-21T04:32:58;99524.09;;;-1.24;100.00
50867;BME280;36839;51.946;21.002;2023-11-21T04:35:29;99527.30;;;-1.27;100.00
50867;BME280;36839;51.946;21.002;2023-11-21T04:44:09;99540.41;;;-1.42;100.00
50867;BME280;36839;51.946;21.002;2023-11-21T04:46:44;99538.89;;;-1.41;100.00
50867;BME280;36839;51.946;21.002;2023-11-21T04:49:36;99540.61;;;-1.39;100.00
50867;BME280;36839;51.946;21.002;2023-11-21T04:52:10;99540.02;;;-1.38;100.00
50867;BME280;36839;51.946;21.002;2023-11-21T04:54:40;99538.52;;;-1.37;100.00
50867;BME280;36839;51.946;21.002;2023-11-21T04:57:22;99543.98;;;-1.36;100.00
50867;BME280;36839;51.946;21.002;2023-11-21T05:00:02;99550.85;;;-1.36;100.00
50867;BME280;36839;51.946;21.002;2023-11-21T05:02:40;99554.64;;;-1.35;100.00
50867;BME280;36839;51.946;21.002;2023-11-21T05:05:21;99552.02;;;-1.33;100.00
50867;BME280;36839;51.946;21.002;2023-11-21T05:07:55;99558.98;;;-1.32;100.00
50867;BME280;36839;51.946;21.002;2023-11-21T05:10:37;99555.16;;;-1.32;100.00
50867;BME280;36839;51.946;21.002;2023-11-21T05:13:37;99550.73;;;-1.29;100.00
50867;BME280;36839;51.946;21.002;2023-11-21T05:16:29;99557.77;;;-1.28;100.00
50867;BME280;36839;51.946;21.002;2023-11-21T05:19:02;99558.43;;;-1.27;100.00
50867;BME280;36839;51.946;21.002;2023-11-21T05:21:36;99558.23;;;-1.29;100.00
50867;BME280;36839;51.946;21.002;2023-11-21T05:24:16;99560.73;;;-1.35;100.00
50867;BME280;36839;51.946;21.002;2023-11-21T05:26:51;99566.52;;;-1.36;100.00
50867;BME280;36839;51.946;21.002;2023-11-21T05:33:01;99574.74;;;-1.38;100.00
50867;BME280;36839;51.946;21.002;2023-11-21T05:35:41;99572.86;;;-1.37;100.00
50867;BME280;36839;51.946;21.002;2023-11-21T05:38:29;99576.45;;;-1.40;100.00
50867;BME280;36839;51.946;21.002;2023-11-21T05:41:13;99580.50;;;-1.42;100.00
50867;BME280;36839;51.946;21.002;2023-11-21T05:44:04;99583.29;;;-1.38;100.00
50867;BME280;36839;51.946;21.002;2023-11-21T05:46:47;99587.44;;;-1.36;100.00
50867;BME280;36839;51.946;21.002;2023-11-21T05:49:57;99592.11;;;-1.34;100.00
50867;BME280;36839;51.946;21.002;2023-11-21T05:52:54;99597.52;;;-1.36;100.00
50867;BME280;36839;51.946;21.002;2023-11-21T05:55:47;99599.94;;;-1.34;100.00
50867;BME280;36839;51.946;21.002;2023-11-21T05:59:00;99603.07;;;-1.35;100.00
50867;BME280;36839;51.946;21.002;2023-11-21T06:01:32;99602.73;;;-1.37;100.00
50867;BME280;36839;51.946;21.002;2023-11-21T06:04:17;99603.79;;;-1.40;100.00
50867;BME280;36839;51.946;21.002;2023-11-21T06:07:23;99605.84;;;-1.41;100.00
50867;BME280;36839;51.946;21.002;2023-11-21T06:10:00;99613.75;;;-1.39;100.00
50867;BME280;36839;51.946;21.002;2023-11-21T06:12:52;99618.70;;;-1.40;100.00
50867;BME280;36839;51.946;21.002;2023-11-21T06:15:38;99624.23;;;-1.35;100.00
50867;BME280;36839;51.946;21.002;2023-11-21T06:18:26;99625.28;;;-1.33;100.00
50867;BME280;36839;51.946;21.002;2023-11-21T06:21:09;99628.58;;;-1.28;100.00
50867;BME280;36839;51.946;21.002;2023-11-21T06:23:57;99630.73;;;-1.24;100.00
50867;BME280;36839;51.946;21.002;2023-11-21T06:27:19;99632.95;;;-1.24;100.00
50867;BME280;36839;51.946;21.002;2023-11-21T06:29:56;99633.05;;;-1.25;100.00
50867;BME280;36839;51.946;21.002;2023-11-21T06:32:29;99633.45;;;-1.28;100.00
50867;BME280;36839;51.946;21.002;2023-11-21T06:35:34;99637.80;;;-1.30;100.00
50867;BME280;36839;51.946;21.002;2023-11-21T06:38:41;99642.80;;;-1.31;100.00
50867;BME280;36839;51.946;21.002;2023-11-21T06:41:28;99646.61;;;-1.34;100.00
50867;BME280;36839;51.946;21.002;2023-11-21T06:43:59;99649.00;;;-1.38;100.00
50867;BME280;36839;51.946;21.002;2023-11-21T06:46:31;99649.05;;;-1.41;100.00
50867;BME280;36839;51.946;21.002;2023-11-21T06:49:08;99656.67;;;-1.41;100.00
50867;BME280;36839;51.946;21.002;2023-11-21T06:52:16;99661.57;;;-1.43;100.00
50867;BME280;36839;51.946;21.002;2023-11-21T06:58:26;99670.15;;;-1.45;100.00
50867;BME280;36839;51.946;21.002;2023-11-21T07:01:23;99669.65;;;-1.42;100.00
50867;BME280;36839;51.946;21.002;2023-11-21T07:03:57;99664.06;;;-1.23;100.00
50867;BME280;36839;51.946;21.002;2023-11-21T07:06:38;99664.72;;;-1.29;100.00
50867;BME280;36839;51.946;21.002;2023-11-21T07:09:19;99672.55;;;-1.28;100.00
50867;BME280;36839;51.946;21.002;2023-11-21T07:12:13;99675.72;;;-1.28;100.00
50867;BME280;36839;51.946;21.002;2023-11-21T07:15:03;99684.00;;;-1.38;100.00
50867;BME280;36839;51.946;21.002;2023-11-21T07:17:59;99682.09;;;-1.41;100.00
50867;BME280;36839;51.946;21.002;2023-11-21T07:21:09;99689.13;;;-1.38;100.00
50867;BME280;36839;51.946;21.002;2023-11-21T07:24:03;99696.91;;;-1.33;100.00
50867;BME280;36839;51.946;21.002;2023-11-21T07:26:46;99702.02;;;-1.31;100.00
50867;BME280;36839;51.946;21.002;2023-11-21T07:29:38;99705.48;;;-1.30;100.00
50867;BME280;36839;51.946;21.002;2023-11-21T07:32:19;99700.52;;;-1.31;100.00
50867;BME280;36839;51.946;21.002;2023-11-21T07:35:06;99698.15;;;-1.30;100.00
50867;BME280;36839;51.946;21.002;2023-11-21T07:37:48;99697.45;;;-1.29;100.00
50867;BME280;36839;51.946;21.002;2023-11-21T07:40:29;99697.06;;;-1.29;100.00
50867;BME280;36839;51.946;21.002;2023-11-21T07:43:22;99702.98;;;-1.30;100.00
50867;BME280;36839;51.946;21.002;2023-11-21T07:49:12;99702.23;;;-1.34;100.00
50867;BME280;36839;51.946;21.002;2023-11-21T07:52:10;99702.76;;;-1.36;100.00
50867;BME280;36839;51.946;21.002;2023-11-21T07:54:44;99704.55;;;-1.38;100.00
50867;BME280;36839;51.946;21.002;2023-11-21T07:57:20;99704.96;;;-1.36;100.00
50867;BME280;36839;51.946;21.002;2023-11-21T08:00:04;99709.13;;;-1.36;100.00
50867;BME280;36839;51.946;21.002;2023-11-21T08:03:02;99709.13;;;-1.36;100.00
50867;BME280;36839;51.946;21.002;2023-11-21T08:05:33;99711.40;;;-1.31;100.00
50867;BME280;36839;51.946;21.002;2023-11-21T08:08:22;99708.80;;;-1.33;100.00
50867;BME280;36839;51.946;21.002;2023-11-21T08:11:05;99710.98;;;-1.29;100.00
50867;BME280;36839;51.946;21.002;2023-11-21T08:13:42;99713.36;;;-1.28;100.00
50867;BME280;36839;51.946;21.002;2023-11-21T08:16:18;99717.81;;;-1.25;100.00
50867;BME280;36839;51.946;21.002;2023-11-21T08:18:57;99717.98;;;-1.25;100.00
50867;BME280;36839;51.946;21.002;2023-11-21T08:21:31;99717.41;;;-1.23;100.00
50867;BME280;36839;51.946;21.002;2023-11-21T08:24:10;99724.27;;;-1.22;100.00
50867;BME280;36839;51.946;21.002;2023-11-21T08:27:10;99731.17;;;-1.21;100.00
50867;BME280;36839;51.946;21.002;2023-11-21T08:29:49;99728.69;;;-1.25;100.00
50867;BME280;36839;51.946;21.002;2023-11-21T08:32:32;99729.95;;;-1.27;100.00
50867;BME280;36839;51.946;21.002;2023-11-21T08:35:05;99733.53;;;-1.28;100.00
50867;BME280;36839;51.946;21.002;2023-11-21T08:37:50;99735.41;;;-1.28;100.00
50867;BME280;36839;51.946;21.002;2023-11-21T08:40:43;99734.69;;;-1.34;100.00
50867;BME280;36839;51.946;21.002;2023-11-21T08:43:18;99736.42;;;-1.37;100.00
50867;BME280;36839;51.946;21.002;2023-11-21T08:45:56;99734.80;;;-1.41;100.00
50867;BME280;36839;51.946;21.002;2023-11-21T08:48:53;99737.54;;;-1.43;100.00
50867;BME280;36839;51.946;21.002;2023-11-21T08:51:33;99744.27;;;-1.10;100.00
50867;BME280;36839;51.946;21.002;2023-11-21T08:54:06;99746.90;;;-1.13;100.00
50867;BME280;36839;51.946;21.002;2023-11-21T08:56:50;99745.79;;;-1.22;100.00
50867;BME280;36839;51.946;21.002;2023-11-21T08:59:37;99743.49;;;-1.27;100.00
50867;BME280;36839;51.946;21.002;2023-11-21T09:02:21;99745.65;;;-1.31;100.00
50867;BME280;36839;51.946;21.002;2023-11-21T09:05:12;99749.02;;;-1.38;100.00
50867;BME280;36839;51.946;21.002;2023-11-21T09:07:45;99751.66;;;-1.45;100.00
50867;BME280;36839;51.946;21.002;2023-11-21T09:10:26;99753.66;;;-1.46;100.00
50867;BME280;36839;51.946;21.002;2023-11-21T09:15:56;99757.86;;;-1.49;100.00
50867;BME280;36839;51.946;21.002;2023-11-21T09:18:28;99757.70;;;-1.46;100.00
50867;BME280;36839;51.946;21.002;2023-11-21T09:20:55;99761.86;;;-1.47;100.00
50867;BME280;36839;51.946;21.002;2023-11-21T09:23:31;99760.31;;;-1.46;100.00
50867;BME280;36839;51.946;21.002;2023-11-21T09:26:06;99767.77;;;-1.45;100.00
50867;BME280;36839;51.946;21.002;2023-11-21T09:28:40;99765.20;;;-1.45;100.00
50867;BME280;36839;51.946;21.002;2023-11-21T09:31:10;99771.73;;;-1.46;100.00
50867;BME280;36839;51.946;21.002;2023-11-21T09:33:40;99774.27;;;-1.49;100.00
50867;BME280;36839;51.946;21.002;2023-11-21T09:36:29;99775.20;;;-1.54;100.00
50867;BME280;36839;51.946;21.002;2023-11-21T09:39:04;99779.29;;;-1.56;100.00
50867;BME280;36839;51.946;21.002;2023-11-21T09:41:51;99780.72;;;-1.50;100.00
50867;BME280;36839;51.946;21.002;2023-11-21T09:45:21;99778.31;;;-1.48;100.00
50867;BME280;36839;51.946;21.002;2023-11-21T09:47:31;99782.54;;;-1.43;100.00
50867;BME280;36839;51.946;21.002;2023-11-21T09:50:09;99781.64;;;-1.40;100.00
50867;BME280;36839;51.946;21.002;2023-11-21T09:55:35;99785.17;;;-1.41;100.00
50867;BME280;36839;51.946;21.002;2023-11-21T09:58:19;99785.98;;;-1.39;100.00
50867;BME280;36839;51.946;21.002;2023-11-21T10:00:53;99786.02;;;-1.38;100.00
50867;BME280;36839;51.946;21.002;2023-11-21T10:03:29;99787.60;;;-1.36;100.00
50867;BME280;36839;51.946;21.002;2023-11-21T10:06:08;99788.39;;;-1.34;100.00
50867;BME280;36839;51.946;21.002;2023-11-21T10:09:00;99792.27;;;-1.33;100.00
50867;BME280;36839;51.946;21.002;2023-11-21T10:11:46;99791.27;;;-1.34;100.00
50867;BME280;36839;51.946;21.002;2023-11-21T10:14:18;99790.69;;;-1.34;100.00
50867;BME280;36839;51.946;21.002;2023-11-21T10:16:59;99793.88;;;-1.31;100.00
50867;BME280;36839;51.946;21.002;2023-11-21T10:19:28;99788.84;;;-1.27;100.00
50867;BME280;36839;51.946;21.002;2023-11-21T10:22:14;99789.52;;;-1.24;100.00
50867;BME280;36839;51.946;21.002;2023-11-21T10:24:49;99787.88;;;-1.26;100.00
50867;BME280;36839;51.946;21.002;2023-11-21T10:27:31;99789.08;;;-1.22;100.00
50867;BME280;36839;51.946;21.002;2023-11-21T10:30:10;99787.45;;;-1.15;100.00
50867;BME280;36839;51.946;21.002;2023-11-21T10:32:58;99787.89;;;-1.11;100.00
50867;BME280;36839;51.946;21.002;2023-11-21T10:35:29;99791.21;;;-1.07;100.00
50867;BME280;36839;51.946;21.002;2023-11-21T10:38:14;99790.96;;;-1.06;100.00
50867;BME280;36839;51.946;21.002;2023-11-21T10:40:56;99793.77;;;-1.03;100.00
50867;BME280;36839;51.946;21.002;2023-11-21T10:43:30;99795.52;;;-1.08;100.00
50867;BME280;36839;51.946;21.002;2023-11-21T10:46:16;99795.55;;;-1.08;100.00
50867;BME280;36839;51.946;21.002;2023-11-21T10:51:54;99794.77;;;-1.10;100.00
50867;BME280;36839;51.946;21.002;2023-11-21T10:54:28;99801.40;;;-1.07;100.00
50867;BME280;36839;51.946;21.002;2023-11-21T10:57:10;99800.60;;;-1.09;100.00
50867;BME280;36839;51.946;21.002;2023-11-21T10:59:48;99799.83;;;-1.20;100.00
50867;BME280;36839;51.946;21.002;2023-11-21T11:05:22;99798.79;;;-1.23;100.00
50867;BME280;36839;51.946;21.002;2023-11-21T11:08:05;99801.02;;;-1.23;100.00
50867;BME280;36839;51.946;21.002;2023-11-21T11:10:40;99803.08;;;-1.22;100.00
50867;BME280;36839;51.946;21.002;2023-11-21T11:13:09;99799.62;;;-1.21;100.00
50867;BME280;36839;51.946;21.002;2023-11-21T11:15:39;99799.16;;;-1.17;100.00
50867;BME280;36839;51.946;21.002;2023-11-21T11:18:09;99801.90;;;-1.13;100.00
50867;BME280;36839;51.946;21.002;2023-11-21T11:20:38;99800.35;;;-1.11;100.00
50867;BME280;36839;51.946;21.002;2023-11-21T11:35:07;99814.73;;;-1.12;100.00
50867;BME280;36839;51.946;21.002;2023-11-21T11:37:45;99817.78;;;-1.11;100.00
50867;BME280;36839;51.946;21.002;2023-11-21T11:40:27;99820.58;;;-1.10;100.00
50867;BME280;36839;51.946;21.002;2023-11-21T11:43:31;99815.55;;;-1.15;100.00
50867;BME280;36839;51.946;21.002;2023-11-21T11:46:18;99822.46;;;-1.16;100.00
50867;BME280;36839;51.946;21.002;2023-11-21T11:49:05;99820.38;;;-1.20;100.00
50867;BME280;36839;51.946;21.002;2023-11-21T11:51:44;99820.55;;;-1.18;100.00
50867;BME280;36839;51.946;21.002;2023-11-21T11:54:44;99821.09;;;-1.20;100.00
50867;BME280;36839;51.946;21.002;2023-11-21T11:57:34;99823.84;;;-1.18;100.00
50867;BME280;36839;51.946;21.002;2023-11-21T12:00:13;99824.25;;;-1.19;100.00
50867;BME280;36839;51.946;21.002;2023-11-21T12:02:48;99823.88;;;-1.17;100.00
50867;BME280;36839;51.946;21.002;2023-11-21T12:05:22;99827.77;;;-1.11;100.00
50867;BME280;36839;51.946;21.002;2023-11-21T12:07:56;99825.48;;;-1.10;100.00
50867;BME280;36839;51.946;21.002;2023-11-21T12:10:25;99824.23;;;-0.93;100.00
50867;BME280;36839;51.946;21.002;2023-11-21T12:13:02;99830.17;;;0.07;100.00
50867;BME280;36839;51.946;21.002;2023-11-21T12:15:40;99836.65;;;0.39;100.00
50867;BME280;36839;51.946;21.002;2023-11-21T12:18:11;99839.79;;;0.92;100.00
50867;BME280;36839;51.946;21.002;2023-11-21T12:20:40;99840.77;;;1.17;100.00
50867;BME280;36839;51.946;21.002;2023-11-21T12:23:09;99832.49;;;0.69;100.00
50867;BME280;36839;51.946;21.002;2023-11-21T12:25:37;99832.82;;;0.36;100.00
50867;BME280;36839;51.946;21.002;2023-11-21T12:28:07;99831.86;;;-0.02;100.00
50867;BME280;36839;51.946;21.002;2023-11-21T12:30:36;99835.39;;;-0.29;100.00
50867;BME280;36839;51.946;21.002;2023-11-21T12:33:05;99833.84;;;-0.46;100.00
50867;BME280;36839;51.946;21.002;2023-11-21T12:35:35;99836.00;;;-0.62;100.00
50867;BME280;36839;51.946;21.002;2023-11-21T12:38:04;99836.52;;;-0.83;100.00
50867;BME280;36839;51.946;21.002;2023-11-21T12:40:32;99842.30;;;-1.04;100.00
50867;BME280;36839;51.946;21.002;2023-11-21T12:43:00;99842.98;;;-1.20;100.00
50867;BME280;36839;51.946;21.002;2023-11-21T12:45:29;99843.97;;;-1.23;100.00
50867;BME280;36839;51.946;21.002;2023-11-21T12:48:04;99854.04;;;-1.27;100.00
50867;BME280;36839;51.946;21.002;2023-11-21T12:50:35;99858.30;;;-1.32;100.00
50867;BME280;36839;51.946;21.002;2023-11-21T12:53:06;99861.11;;;-1.38;100.00
50867;BME280;36839;51.946;21.002;2023-11-21T12:55:39;99860.77;;;-1.37;100.00
50867;BME280;36839;51.946;21.002;2023-11-21T12:58:09;99863.83;;;-1.39;100.00
50867;BME280;36839;51.946;21.002;2023-11-21T13:00:44;99862.48;;;-1.41;100.00
50867;BME280;36839;51.946;21.002;2023-11-21T13:03:14;99866.95;;;-1.37;100.00
50867;BME280;36839;51.946;21.002;2023-11-21T13:05:50;99863.90;;;-1.30;100.00
50867;BME280;36839;51.946;21.002;2023-11-21T13:08:18;99867.08;;;-1.27;100.00
50867;BME280;36839;51.946;21.002;2023-11-21T13:10:56;99869.61;;;-1.28;100.00
50867;BME280;36839;51.946;21.002;2023-11-21T13:13:25;99872.16;;;-1.26;100.00
50867;BME280;36839;51.946;21.002;2023-11-21T13:16:02;99874.03;;;-1.25;100.00
50867;BME280;36839;51.946;21.002;2023-11-21T13:18:32;99876.73;;;-1.23;100.00
50867;BME280;36839;51.946;21.002;2023-11-21T13:21:05;99887.53;;;-1.30;100.00
50867;BME280;36839;51.946;21.002;2023-11-21T13:23:42;99890.87;;;-1.40;100.00
50867;BME280;36839;51.946;21.002;2023-11-21T13:26:12;99894.26;;;-1.44;100.00
50867;BME280;36839;51.946;21.002;2023-11-21T13:28:46;99894.03;;;-1.47;100.00
50867;BME280;36839;51.946;21.002;2023-11-21T13:31:14;99895.83;;;-1.47;100.00
50867;BME280;36839;51.946;21.002;2023-11-21T13:36:36;99908.07;;;-1.50;100.00
50867;BME280;36839;51.946;21.002;2023-11-21T13:39:04;99908.35;;;-1.51;100.00
50867;BME280;36839;51.946;21.002;2023-11-21T13:41:34;99912.95;;;-1.53;100.00
50867;BME280;36839;51.946;21.002;2023-11-21T13:44:04;99916.81;;;-1.55;100.00
50867;BME280;36839;51.946;21.002;2023-11-21T13:46:56;99918.65;;;-1.53;100.00
50867;BME280;36839;51.946;21.002;2023-11-21T13:49:34;99920.19;;;-1.57;100.00
50867;BME280;36839;51.946;21.002;2023-11-21T13:52:20;99917.69;;;-1.56;100.00
50867;BME280;36839;51.946;21.002;2023-11-21T13:54:53;99923.56;;;-1.54;100.00
50867;BME280;36839;51.946;21.002;2023-11-21T13:57:22;99927.08;;;-1.53;100.00
50867;BME280;36839;51.946;21.002;2023-11-21T13:59:48;99932.23;;;-1.54;100.00
50867;BME280;36839;51.946;21.002;2023-11-21T14:02:18;99939.72;;;-1.58;100.00
50867;BME280;36839;51.946;21.002;2023-11-21T14:04:47;99951.39;;;-1.57;100.00
50867;BME280;36839;51.946;21.002;2023-11-21T14:07:29;99959.00;;;-1.60;100.00
50867;BME280;36839;51.946;21.002;2023-11-21T14:10:07;99959.67;;;-1.59;100.00
50867;BME280;36839;51.946;21.002;2023-11-21T14:12:39;99961.70;;;-1.61;100.00
50867;BME280;36839;51.946;21.002;2023-11-21T14:15:09;99967.58;;;-1.65;100.00
50867;BME280;36839;51.946;21.002;2023-11-21T14:17:47;99972.45;;;-1.65;100.00
50867;BME280;36839;51.946;21.002;2023-11-21T14:20:16;99980.25;;;-1.62;100.00
50867;BME280;36839;51.946;21.002;2023-11-21T14:22:48;99985.75;;;-1.64;100.00
50867;BME280;36839;51.946;21.002;2023-11-21T14:25:15;99992.30;;;-1.69;100.00
50867;BME280;36839;51.946;21.002;2023-11-21T14:27:45;99990.55;;;-1.69;100.00
50867;BME280;36839;51.946;21.002;2023-11-21T14:30:13;99996.35;;;-1.71;100.00
50867;BME280;36839;51.946;21.002;2023-11-21T14:32:39;100005.27;;;-1.72;100.00
50867;BME280;36839;51.946;21.002;2023-11-21T14:35:07;100011.92;;;-1.72;100.00
50867;BME280;36839;51.946;21.002;2023-11-21T14:37:38;100019.97;;;-1.71;100.00
50867;BME280;36839;51.946;21.002;2023-11-21T14:40:04;100019.63;;;-1.73;100.00
50867;BME280;36839;51.946;21.002;2023-11-21T14:42:33;100018.52;;;-1.71;100.00
50867;BME280;36839;51.946;21.002;2023-11-21T14:45:04;100018.96;;;-1.72;100.00
50867;BME280;36839;51.946;21.002;2023-11-21T14:47:33;100023.05;;;-1.71;100.00